Terminal Aerodrome Forecast
Issued by NWS Memphis, TN

Home | Current Version | Previous Version | Text Only | Print | Product List | Glossary On
Versions: 1 2 3 4 5 6 7 8 9 10 11 12 13 14
000
FTUS44 KMEG 301700
TAFMKL
TAF
KMKL 301739Z 3018/3118 20005KT P6SM -SHRA VCTS FEW045CB OVC100
      TEMPO 3020/3024 VRB10KT 5SM -TSRA BKN035CB
     FM310100 17006KT 5SM -SHRA BR VCTS SCT015 BKN025CB
     FM311500 23009KT 6SM -SHRA VCTS BKN015 OVC030CB=

USA.gov is the U.S. government's official web portal to all federal, state and local government web resources and services.